Flight Track Log - Related Links

Times and Time Zones

All times are in EDT time to prevent confusion due to time zone crossing. See the RPA3457 flight status page for this flight to view local times or setup timezone preferences in your user account.

Time Position Orientation Groundspeed Altitude Reporting Facility
EDT Latitude Longitude Course Direction KTS MPH feet Rate Location/Type
Thu 07:58:00 AM 44.1650 -73.2632 195° South  Level FlightAware Approximate
Thu 07:59:00 AM 44.0638 -73.3009 194° South  Level FlightAware Approximate
Thu 07:59:13 AM 44.2756 -73.1939 198° South 250 288 8,900  Level Boston Center
Thu 08:00:00 AM 43.9620 -73.3349 194° South  Level FlightAware Approximate
Thu 08:00:13 AM 44.2025 -73.2250 197° South 264 304 11,400  Level Boston Center
Thu 08:01:00 AM 43.8606 -73.3711 195° South  Level FlightAware Approximate
Thu 08:01:12 AM 44.1167 -73.2583 196° South 302 348 14,100  Level Boston Center
Thu 08:02:00 AM 43.7595 -73.4090 195° South  Level FlightAware Approximate
Thu 08:02:12 AM 44.0331 -73.2947 197° South 319 367 16,900  Level Boston Center
Thu 08:03:00 AM 43.6584 -73.4469 195° South  Level FlightAware Approximate
Thu 08:03:12 AM 43.9411 -73.3311 196° South 338 389 18,700  Level Boston Center
Thu 08:04:00 AM 43.5588 -73.4915 198° South  Level FlightAware Approximate
Thu 08:04:12 AM 43.8614 -73.3903 208° Southwest 338 389 20,800  Level Boston Center
Thu 08:05:13 AM 43.7817 -73.4667 215° Southwest 350 403 22,900 1,983 Climbing Boston Center
Thu 08:06:13 AM 43.6975 -73.5428 213° Southwest 359 413 24,800 1,636 Climbing Boston Center
Thu 08:07:14 AM 43.6178 -73.6072 210° Southwest 364 419 26,200 1,388 Climbing Boston Center
Thu 08:08:14 AM 43.5092 -73.6425 193° South 383 441 27,600 1,289 Climbing Boston Center
Thu 08:09:15 AM 43.3964 -73.6631 188° South 393 452 28,800 1,220 Climbing Boston Center
Thu 08:10:12 AM 43.2814 -73.6892 189° South 410 472 30,000 610 Climbing Boston Center
Thu 08:11:13 AM 43.1644 -73.7153 189° South 423 487 30,000  Level Boston Center
Thu 08:12:12 AM 43.0453 -73.7411 189° South 433 498 30,000  Level Boston Center
Thu 08:13:15 AM 42.9303 -73.7672 189° South 433 498 30,000  Level Boston Center
Thu 08:14:12 AM 42.8050 -73.7928 189° South 428 493 30,000  Level Boston Center
Thu 08:15:14 AM 42.6839 -73.8014 183° South 428 493 30,000  Level Boston Center
Thu 08:16:13 AM 42.5800 -73.7794 171° South 428 493 30,000  Level Boston Center
Thu 08:17:13 AM 42.4614 -73.7628 174° South 421 484 30,000  Level Boston Center
Thu 08:18:14 AM 42.3408 -73.7461 174° South 426 490 30,000  Level Boston Center
Thu 08:19:14 AM 42.2203 -73.7242 172° South 431 496 30,000  Level Boston Center
Thu 08:20:14 AM 42.0911 -73.6992 172° South 425 489 30,000  Level Boston Center
Thu 08:21:12 AM 41.9808 -73.6828 174° South 430 495 30,000  Level Boston Center
Thu 08:22:13 AM 41.8647 -73.6361 163° South 436 502 30,000  Level Boston Center
Thu 08:23:12 AM 41.7483 -73.5947 165° South 441 507 30,000  Level Boston Center
Thu 08:24:13 AM 41.6381 -73.5872 177° South 424 488 30,000  Level Boston Center
Thu 08:26:11 AM 41.4322 -73.5825 179° South 377 434 30,000  Level New York Center
Thu 08:27:12 AM 41.3303 -73.5839 181° South 372 428 30,000  Level New York Center
Thu 08:28:10 AM 41.2411 -73.6492 209° Southwest 355 409 30,000  Level New York Center
Thu 08:29:11 AM 41.1736 -73.7647 232° Southwest 364 419 30,000  Level New York Center
Thu 08:30:12 AM 41.1039 -73.8856 233° Southwest 393 452 30,000  Level New York Center
Thu 08:31:12 AM 41.0342 -74.0033 232° Southwest 406 467 30,000  Level New York Center
Thu 08:32:12 AM 40.9664 -74.1181 232° Southwest 411 473 30,000  Level New York Center
Thu 08:33:11 AM 40.9008 -74.2164 229° Southwest 406 467 30,000 -504 Level New York Center
Thu 08:34:11 AM 40.8331 -74.3308 232° Southwest 406 467 29,000 -992 Descending New York Center
Thu 08:35:12 AM 40.7650 -74.4425 231° Southwest 406 467 28,000 -496 Descending New York Center
Thu 08:36:12 AM 40.6903 -74.5644 231° Southwest 395 455 28,000  Level New York Center
Thu 08:37:10 AM 40.6261 -74.6756 233° Southwest 395 455 28,000 -254 Level New York Center
Thu 08:38:10 AM 40.5558 -74.7836 229° Southwest 395 455 27,500 -800 Descending New York Center
Thu 08:39:10 AM 40.4836 -74.8858 227° Southwest 389 448 26,400 -1,091 Descending New York Center
Thu 08:40:11 AM 40.4133 -74.9853 227° Southwest 382 440 25,300 -1,041 Descending New York Center
Thu 08:41:11 AM 40.3433 -75.0817 226° Southwest 376 433 24,300 -1,000 Descending New York Center
Thu 08:42:11 AM 40.2769 -75.1808 229° Southwest 376 433 23,300 -1,000 Descending New York Center
Thu 08:43:11 AM 40.2111 -75.2719 227° Southwest 365 420 22,300 -650 Descending New York Center
Thu 08:44:11 AM 40.1431 -75.3625 226° Southwest 360 414 22,000 -150 Descending New York Center
Thu 08:45:11 AM 40.0744 -75.4611 228° Southwest 360 414 22,000  Level New York Center
Thu 08:46:11 AM 40.0081 -75.5569 228° Southwest 360 414 22,000  Level New York Center
Thu 08:47:09 AM 39.9433 -75.6581 230° Southwest 365 420 22,000  Level New York Center
Thu 08:48:11 AM 39.8808 -75.7592 231° Southwest 370 426 22,000  Level New York Center
Thu 08:49:12 AM 39.8161 -75.8600 230° Southwest 370 426 22,000 -600 Level New York Center
Thu 08:50:11 AM 39.7511 -75.9606 230° Southwest 365 420 20,800 -1,525 Descending New York Center
Thu 08:51:10 AM 39.6933 -76.0428 228° Southwest 358 412 19,000 -1,700 Descending New York Center
Thu 08:52:11 AM 39.6258 -76.1508 231° Southwest 353 406 17,400 -1,800 Descending New York Center
Thu 08:53:10 AM 39.5722 -76.2331 230° Southwest 352 405 15,400 -1,860 Descending New York Center
Thu 08:54:20 AM 39.5000 -76.3500 231° Southwest 314 361 13,400 -1,569 Descending Potomac TRACON
Thu 08:55:20 AM 39.4333 -76.4333 224° Southwest 297 342 12,000 -730 Descending Potomac TRACON
Thu 08:56:15 AM 39.3833 -76.4833 218° Southwest 296 341 12,000 -99 Level Potomac TRACON
Thu 08:57:21 AM 39.3000 -76.5500 212° Southwest 283 326 11,800 -250 Descending Potomac TRACON
Thu 08:58:15 AM 39.2500 -76.5833 207° Southwest 233 268 11,500 -421 Descending Potomac TRACON
Thu 08:59:15 AM 39.2000 -76.6333 218° Southwest 206 237 11,000 -250 Descending Potomac TRACON
Thu 09:00:15 AM 39.1500 -76.6500 194° South 228 262 11,000  Level Potomac TRACON
Thu 09:01:09 AM 39.1833 -76.7500 293° West 320 368 11,000  Level Potomac TRACON
Thu 09:02:09 AM 39.2500 -76.7000 30° Northeast 300 345 11,000  Level Potomac TRACON
Thu 09:03:09 AM 39.3000 -76.6500 38° Northeast 267 307 11,000  Level Potomac TRACON
Thu 09:04:03 AM 39.3333 -76.5667 63° Northeast 277 319 11,000  Level Potomac TRACON
Thu 09:05:03 AM 39.2667 -76.5833 191° South 220 253 11,000  Level Potomac TRACON
Thu 09:06:04 AM 39.2167 -76.6167 207° Southwest 215 247 11,000  Level Potomac TRACON
Thu 09:07:04 AM 39.1667 -76.6500 207° Southwest 214 246 11,000  Level Potomac TRACON
Thu 09:08:05 AM 39.2167 -76.7167 314° West 256 295 11,000 52 Level Potomac TRACON
Thu 09:08:59 AM 39.2833 -76.6667 30° Northeast 255 293 11,100 53 Climbing Potomac TRACON
Thu 09:09:59 AM 39.3333 -76.6167 38° Northeast 258 297 11,100 -105 Level Potomac TRACON
Thu 09:10:53 AM 39.3500 -76.5500 72° East 274 315 10,900 -450 Descending Potomac TRACON
Thu 09:11:59 AM 39.3000 -76.5500 180° South 211 243 10,200 -450 Descending Potomac TRACON
Thu 09:12:53 AM 39.2500 -76.5833 207° Southwest 208 239 10,000 -105 Descending Potomac TRACON
Thu 09:13:53 AM 39.2000 -76.6333 218° Southwest 207 238 10,000  Level Potomac TRACON
Thu 09:14:53 AM 39.1667 -76.6833 229° Southwest 207 238 10,000  Level Potomac TRACON
Thu 09:15:53 AM 39.1167 -76.7333 218° Southwest 210 242 10,000 -316 Level Potomac TRACON
Thu 09:16:47 AM 39.0833 -76.7667 218° Southwest 207 238 9,400 -939 Descending Potomac TRACON
Thu 09:17:48 AM 39.0333 -76.8167 218° Southwest 206 237 8,200 -1,289 Descending Potomac TRACON
Thu 09:18:48 AM 39.0000 -76.8667 229° Southwest 211 243 6,800 -1,100 Descending Potomac TRACON
Thu 09:19:48 AM 38.9667 -76.9333 237° Southwest 205 236 6,000 -400 Descending Potomac TRACON
Thu 09:20:48 AM 38.9667 -77.0000 270° West 194 223 6,000  Level Potomac TRACON

Login

Don't have an account? Register now (free) for customized features, flight alerts, and more!